EWG4ZR EDDN-LEPA
Flight info
| Callsign | EWG4ZR |
|---|---|
| Flight time | 1h 55m |
| Altitude | 37000 |
| Route | BOLSI1G BOLSI Y166 DKB N869 NATOR DCT LUTIX/N0446F390 DCT BENOT DCT NEMOS DCT GEVEA DCT INCUS DCT BALSI DCT RETNO DCT TUPOX DCT MTG DCT DIVKO DCT VATIR DCT PIVUS DCT BODEQ DCT VERSO L129 LUNIK LUNIK3P |
| Aircraft | A320/M-SDE3FGHIRWY/LB1 |
Departure
| Time | 2026-05-04 16:37 |
|---|---|
| Airport | Nuremberg Airport (EDDN) |
Arrival
| Time | 2026-05-04 18:32 |
|---|---|
| Airport | Palma de Mallorca Airport (LEPA) |
| Time | Latitude | Longitude | Altitude | Speed | Heading |
|---|---|---|---|---|---|
| 2026-05-04 16:05 | 49.49525 | 11.07659 | 1026 ft | 0 kts | 188° |
| 2026-05-04 16:28 | 49.49550 | 11.07664 | 1026 ft | 4 kts | 181° |
| 2026-05-04 16:28 | 49.49599 | 11.07629 | 1026 ft | 0 kts | 98° |
| 2026-05-04 16:31 | 49.49591 | 11.07711 | 1025 ft | 10 kts | 98° |
| 2026-05-04 16:32 | 49.49538 | 11.08255 | 1028 ft | 12 kts | 99° |
| 2026-05-04 16:33 | 49.49606 | 11.08370 | 1033 ft | 6 kts | 35° |
| 2026-05-04 16:33 | 49.49616 | 11.08419 | 1034 ft | 0 kts | 96° |
| 2026-05-04 16:34 | 49.49603 | 11.08554 | 1035 ft | 18 kts | 99° |
| 2026-05-04 16:34 | 49.49583 | 11.08766 | 1037 ft | 22 kts | 98° |
| 2026-05-04 16:35 | 49.49529 | 11.09334 | 1045 ft | 4 kts | 84° |
| 2026-05-04 16:35 | 49.49571 | 11.09446 | 1048 ft | 8 kts | 54° |
| 2026-05-04 16:36 | 49.49612 | 11.09532 | 1051 ft | 12 kts | 53° |
| 2026-05-04 16:36 | 49.49720 | 11.09312 | 1048 ft | 34 kts | 276° |
| 2026-05-04 16:37 | 49.49939 | 11.07122 | 1026 ft | 162 kts | 279° |
| 2026-05-04 16:37 | 49.50134 | 11.05281 | 1445 ft | 178 kts | 280° |
| 2026-05-04 16:37 | 49.50457 | 11.01257 | 2664 ft | 204 kts | 276° |
| 2026-05-04 16:38 | 49.50747 | 10.96563 | 4008 ft | 237 kts | 274° |
| 2026-05-04 16:39 | 49.49918 | 10.88909 | 6632 ft | 259 kts | 236° |
| 2026-05-04 16:39 | 49.47614 | 10.84379 | 8326 ft | 272 kts | 226° |
| 2026-05-04 16:40 | 49.44993 | 10.80173 | 10289 ft | 277 kts | 225° |
| 2026-05-04 16:40 | 49.42208 | 10.75458 | 11199 ft | 313 kts | 228° |
| 2026-05-04 16:41 | 49.39359 | 10.70277 | 12808 ft | 322 kts | 229° |
| 2026-05-04 16:41 | 49.35030 | 10.62167 | 15048 ft | 333 kts | 229° |
| 2026-05-04 16:42 | 49.30547 | 10.53812 | 17104 ft | 344 kts | 230° |
| 2026-05-04 16:43 | 49.27457 | 10.48099 | 18423 ft | 352 kts | 230° |
| 2026-05-04 16:43 | 49.24134 | 10.42524 | 19576 ft | 359 kts | 225° |
| 2026-05-04 16:43 | 49.22358 | 10.39799 | 20167 ft | 362 kts | 224° |
| 2026-05-04 16:44 | 49.15089 | 10.28778 | 22396 ft | 374 kts | 225° |
| 2026-05-04 16:45 | 49.11399 | 10.23071 | 23473 ft | 381 kts | 225° |
| 2026-05-04 16:46 | 49.05773 | 10.14327 | 24785 ft | 389 kts | 225° |
| 2026-05-04 16:46 | 49.01985 | 10.08446 | 25648 ft | 393 kts | 225° |
| 2026-05-04 16:47 | 48.98095 | 10.02432 | 26504 ft | 398 kts | 225° |
| 2026-05-04 16:47 | 48.94207 | 9.96459 | 27322 ft | 403 kts | 225° |
| 2026-05-04 16:48 | 48.88236 | 9.87297 | 28525 ft | 410 kts | 225° |
| 2026-05-04 16:48 | 48.86221 | 9.84207 | 28926 ft | 412 kts | 225° |
| 2026-05-04 16:49 | 48.82157 | 9.77991 | 29697 ft | 417 kts | 225° |
| 2026-05-04 16:49 | 48.78048 | 9.71728 | 30382 ft | 421 kts | 225° |
| 2026-05-04 16:50 | 48.73902 | 9.65419 | 30985 ft | 424 kts | 225° |
| 2026-05-04 16:50 | 48.70424 | 9.60142 | 31477 ft | 427 kts | 225° |
| 2026-05-04 16:51 | 48.66228 | 9.53785 | 32281 ft | 425 kts | 225° |
| 2026-05-04 16:51 | 48.64113 | 9.50589 | 32707 ft | 424 kts | 225° |
| 2026-05-04 16:51 | 48.59948 | 9.44298 | 33538 ft | 421 kts | 225° |
| 2026-05-04 16:52 | 48.55843 | 9.38106 | 34293 ft | 419 kts | 225° |
| 2026-05-04 16:52 | 48.53777 | 9.34999 | 34643 ft | 418 kts | 225° |
| 2026-05-04 16:53 | 48.49665 | 9.28827 | 35299 ft | 417 kts | 225° |
| 2026-05-04 16:53 | 48.43510 | 9.19632 | 36233 ft | 414 kts | 225° |
| 2026-05-04 16:54 | 48.41463 | 9.16585 | 36510 ft | 413 kts | 225° |
| 2026-05-04 16:55 | 48.33320 | 9.04464 | 36958 ft | 410 kts | 225° |
| 2026-05-04 16:55 | 48.29263 | 8.98451 | 36957 ft | 409 kts | 225° |
| 2026-05-04 16:56 | 48.19125 | 8.83498 | 36955 ft | 409 kts | 225° |
| 2026-05-04 16:57 | 48.13036 | 8.74549 | 36960 ft | 409 kts | 225° |
| 2026-05-04 16:58 | 48.04900 | 8.62643 | 36961 ft | 409 kts | 225° |
| 2026-05-04 17:00 | 47.92691 | 8.44885 | 36976 ft | 408 kts | 225° |
| 2026-05-04 17:01 | 47.82554 | 8.30238 | 36972 ft | 407 kts | 225° |
| 2026-05-04 17:02 | 47.74742 | 8.18993 | 36975 ft | 407 kts | 225° |
| 2026-05-04 17:03 | 47.68635 | 8.10244 | 36995 ft | 407 kts | 225° |
| 2026-05-04 17:03 | 47.62515 | 8.01521 | 37005 ft | 407 kts | 225° |
| 2026-05-04 17:04 | 47.54368 | 7.89933 | 37017 ft | 406 kts | 225° |
| 2026-05-04 17:05 | 47.46861 | 7.79290 | 37022 ft | 406 kts | 225° |
| 2026-05-04 17:06 | 47.40826 | 7.70790 | 37026 ft | 406 kts | 225° |
| 2026-05-04 17:07 | 47.35388 | 7.63151 | 37028 ft | 406 kts | 225° |
| 2026-05-04 17:07 | 47.30600 | 7.56447 | 37030 ft | 406 kts | 225° |
| 2026-05-04 17:08 | 47.24463 | 7.47862 | 37030 ft | 406 kts | 225° |
| 2026-05-04 17:09 | 47.20374 | 7.42159 | 37031 ft | 405 kts | 225° |
| 2026-05-04 17:09 | 47.16271 | 7.36454 | 37034 ft | 405 kts | 225° |
| 2026-05-04 17:10 | 47.06021 | 7.22256 | 37034 ft | 405 kts | 225° |
| 2026-05-04 17:11 | 47.01917 | 7.16591 | 37037 ft | 405 kts | 224° |
| 2026-05-04 17:12 | 46.95774 | 7.08164 | 37055 ft | 405 kts | 221° |
| 2026-05-04 17:12 | 46.90767 | 7.04270 | 37059 ft | 409 kts | 206° |
| 2026-05-04 17:13 | 46.83045 | 6.98994 | 37054 ft | 408 kts | 208° |
| 2026-05-04 17:14 | 46.72778 | 6.91935 | 37050 ft | 408 kts | 207° |
| 2026-05-04 17:15 | 46.65050 | 6.86764 | 37044 ft | 408 kts | 207° |
| 2026-05-04 17:16 | 46.54735 | 6.79856 | 37036 ft | 407 kts | 208° |
| 2026-05-04 17:17 | 46.44450 | 6.72973 | 37037 ft | 407 kts | 207° |
| 2026-05-04 17:18 | 46.34204 | 6.66170 | 37046 ft | 406 kts | 207° |
| 2026-05-04 17:19 | 46.23948 | 6.59374 | 37048 ft | 405 kts | 207° |
| 2026-05-04 17:20 | 46.13708 | 6.52610 | 37046 ft | 405 kts | 208° |
| 2026-05-04 17:20 | 46.06027 | 6.47564 | 37043 ft | 404 kts | 207° |
| 2026-05-04 17:21 | 45.95850 | 6.40901 | 37053 ft | 404 kts | 207° |
| 2026-05-04 17:22 | 45.90737 | 6.37566 | 37053 ft | 403 kts | 207° |
| 2026-05-04 17:23 | 45.80545 | 6.30929 | 37057 ft | 402 kts | 208° |
| 2026-05-04 17:24 | 45.72886 | 6.25964 | 37054 ft | 401 kts | 207° |
| 2026-05-04 17:25 | 45.62708 | 6.19380 | 37030 ft | 401 kts | 207° |
| 2026-05-04 17:26 | 45.52581 | 6.12864 | 37031 ft | 401 kts | 207° |
| 2026-05-04 17:27 | 45.39877 | 6.04721 | 37036 ft | 400 kts | 207° |
| 2026-05-04 17:28 | 45.29720 | 5.98231 | 37031 ft | 400 kts | 207° |
| 2026-05-04 17:29 | 45.14467 | 5.88555 | 37022 ft | 400 kts | 207° |
| 2026-05-04 17:31 | 45.02149 | 5.80762 | 37038 ft | 400 kts | 207° |
| 2026-05-04 17:32 | 44.89453 | 5.72791 | 37036 ft | 399 kts | 207° |
| 2026-05-04 17:33 | 44.79331 | 5.66448 | 37012 ft | 395 kts | 207° |
| 2026-05-04 17:34 | 44.69259 | 5.60167 | 37004 ft | 397 kts | 206° |
| 2026-05-04 17:35 | 44.56615 | 5.52333 | 37009 ft | 398 kts | 207° |
| 2026-05-04 17:36 | 44.52405 | 5.49718 | 37017 ft | 398 kts | 206° |
| 2026-05-04 17:36 | 44.47330 | 5.46584 | 37019 ft | 398 kts | 206° |
| 2026-05-04 17:37 | 44.42254 | 5.43460 | 37021 ft | 399 kts | 207° |
| 2026-05-04 17:37 | 44.37185 | 5.40335 | 37025 ft | 399 kts | 206° |
| 2026-05-04 17:38 | 44.32110 | 5.37210 | 37020 ft | 398 kts | 207° |
| 2026-05-04 17:38 | 44.27035 | 5.34098 | 37026 ft | 399 kts | 206° |
| 2026-05-04 17:39 | 44.19413 | 5.29448 | 37017 ft | 399 kts | 207° |
| 2026-05-04 17:39 | 44.14360 | 5.26364 | 37017 ft | 399 kts | 207° |
| 2026-05-04 17:40 | 44.09274 | 5.23267 | 37017 ft | 399 kts | 207° |
| 2026-05-04 17:40 | 44.04564 | 5.20400 | 37012 ft | 398 kts | 207° |
| 2026-05-04 17:41 | 43.99487 | 5.17314 | 36993 ft | 398 kts | 207° |
| 2026-05-04 17:41 | 43.94416 | 5.14241 | 36990 ft | 398 kts | 207° |
| 2026-05-04 17:42 | 43.89338 | 5.11179 | 36988 ft | 398 kts | 207° |
| 2026-05-04 17:42 | 43.84272 | 5.08124 | 36985 ft | 397 kts | 207° |
| 2026-05-04 17:43 | 43.79208 | 5.05068 | 36985 ft | 396 kts | 207° |
| 2026-05-04 17:43 | 43.74148 | 5.02028 | 36981 ft | 396 kts | 207° |
| 2026-05-04 17:44 | 43.69090 | 4.98995 | 36983 ft | 396 kts | 207° |
| 2026-05-04 17:44 | 43.64038 | 4.95972 | 36985 ft | 396 kts | 207° |
| 2026-05-04 17:45 | 43.58984 | 4.92948 | 36987 ft | 396 kts | 207° |
| 2026-05-04 17:45 | 43.53941 | 4.89934 | 36989 ft | 395 kts | 207° |
| 2026-05-04 17:46 | 43.48902 | 4.86938 | 36986 ft | 394 kts | 207° |
| 2026-05-04 17:46 | 43.43872 | 4.83943 | 36989 ft | 393 kts | 207° |
| 2026-05-04 17:47 | 43.38847 | 4.80960 | 36993 ft | 393 kts | 207° |
| 2026-05-04 17:47 | 43.33830 | 4.77989 | 36990 ft | 393 kts | 207° |
| 2026-05-04 17:48 | 43.28810 | 4.75029 | 36988 ft | 392 kts | 207° |
| 2026-05-04 17:48 | 43.23794 | 4.72074 | 36985 ft | 392 kts | 207° |
| 2026-05-04 17:49 | 43.18817 | 4.69133 | 36983 ft | 392 kts | 207° |
| 2026-05-04 17:49 | 43.13814 | 4.66185 | 36981 ft | 391 kts | 207° |
| 2026-05-04 17:50 | 43.08812 | 4.63255 | 36978 ft | 391 kts | 207° |
| 2026-05-04 17:50 | 43.03798 | 4.60378 | 36967 ft | 391 kts | 206° |
| 2026-05-04 17:51 | 42.98787 | 4.57529 | 36967 ft | 390 kts | 206° |
| 2026-05-04 17:51 | 42.93779 | 4.54669 | 36961 ft | 389 kts | 206° |
| 2026-05-04 17:52 | 42.88784 | 4.51816 | 36962 ft | 389 kts | 206° |
| 2026-05-04 17:52 | 42.83789 | 4.48974 | 36963 ft | 389 kts | 206° |
| 2026-05-04 17:53 | 42.78796 | 4.46142 | 36959 ft | 389 kts | 206° |
| 2026-05-04 17:53 | 42.73807 | 4.43308 | 36965 ft | 389 kts | 206° |
| 2026-05-04 17:54 | 42.68808 | 4.40490 | 36972 ft | 389 kts | 205° |
| 2026-05-04 17:54 | 42.63710 | 4.37985 | 36965 ft | 390 kts | 202° |
| 2026-05-04 17:55 | 42.58558 | 4.35686 | 36954 ft | 390 kts | 202° |
| 2026-05-04 17:55 | 42.53410 | 4.33368 | 36948 ft | 389 kts | 203° |
| 2026-05-04 17:56 | 42.48283 | 4.31003 | 36943 ft | 389 kts | 203° |
| 2026-05-04 17:56 | 42.43164 | 4.28626 | 36937 ft | 389 kts | 203° |
| 2026-05-04 17:57 | 42.38079 | 4.26277 | 36939 ft | 389 kts | 203° |
| 2026-05-04 17:57 | 42.32956 | 4.23910 | 36946 ft | 389 kts | 203° |
| 2026-05-04 17:58 | 42.27830 | 4.21559 | 36928 ft | 389 kts | 203° |
| 2026-05-04 17:58 | 42.22699 | 4.19211 | 36937 ft | 389 kts | 203° |
| 2026-05-04 17:59 | 42.17570 | 4.16865 | 36927 ft | 389 kts | 203° |
| 2026-05-04 18:00 | 42.09870 | 4.13346 | 36921 ft | 390 kts | 203° |
| 2026-05-04 18:00 | 42.04735 | 4.10995 | 36919 ft | 390 kts | 203° |
| 2026-05-04 18:01 | 42.00053 | 4.08843 | 36910 ft | 390 kts | 203° |
| 2026-05-04 18:01 | 41.94905 | 4.06490 | 36916 ft | 390 kts | 203° |
| 2026-05-04 18:02 | 41.87188 | 4.02971 | 36913 ft | 391 kts | 203° |
| 2026-05-04 18:02 | 41.82068 | 4.00649 | 36919 ft | 391 kts | 203° |
| 2026-05-04 18:03 | 41.76915 | 3.98300 | 36924 ft | 391 kts | 204° |
| 2026-05-04 18:03 | 41.71756 | 3.95951 | 36927 ft | 392 kts | 203° |
| 2026-05-04 18:04 | 41.66591 | 3.93613 | 36928 ft | 392 kts | 203° |
| 2026-05-04 18:05 | 41.58847 | 3.90118 | 36934 ft | 391 kts | 203° |
| 2026-05-04 18:05 | 41.53696 | 3.87798 | 36934 ft | 391 kts | 204° |
| 2026-05-04 18:06 | 41.45963 | 3.84321 | 36930 ft | 391 kts | 203° |
| 2026-05-04 18:06 | 41.40844 | 3.82026 | 36925 ft | 390 kts | 204° |
| 2026-05-04 18:07 | 41.35672 | 3.79705 | 36925 ft | 390 kts | 204° |
| 2026-05-04 18:07 | 41.30557 | 3.77409 | 36928 ft | 390 kts | 204° |
| 2026-05-04 18:08 | 41.25376 | 3.75088 | 36927 ft | 390 kts | 204° |
| 2026-05-04 18:08 | 41.20262 | 3.72809 | 36926 ft | 391 kts | 204° |
| 2026-05-04 18:09 | 41.09953 | 3.68237 | 36929 ft | 391 kts | 204° |
| 2026-05-04 18:10 | 41.04785 | 3.65947 | 36385 ft | 395 kts | 203° |
| 2026-05-04 18:10 | 41.03902 | 3.65556 | 36174 ft | 394 kts | 203° |
| 2026-05-04 18:10 | 41.03852 | 3.65534 | 36166 ft | 394 kts | 203° |
| 2026-05-04 18:11 | 41.02117 | 3.64734 | 35892 ft | 389 kts | 204° |
| 2026-05-04 18:11 | 40.99564 | 3.63583 | 35425 ft | 385 kts | 203° |
| 2026-05-04 18:11 | 40.97042 | 3.62474 | 34930 ft | 381 kts | 203° |
| 2026-05-04 18:11 | 40.94532 | 3.61379 | 34451 ft | 377 kts | 203° |
| 2026-05-04 18:12 | 40.92051 | 3.60297 | 33964 ft | 374 kts | 203° |
| 2026-05-04 18:12 | 40.89595 | 3.59225 | 33451 ft | 370 kts | 203° |
| 2026-05-04 18:12 | 40.87164 | 3.58159 | 32982 ft | 365 kts | 203° |
| 2026-05-04 18:12 | 40.84766 | 3.57106 | 32520 ft | 361 kts | 203° |
| 2026-05-04 18:13 | 40.82401 | 3.56070 | 32059 ft | 357 kts | 203° |
| 2026-05-04 18:13 | 40.80056 | 3.55042 | 31596 ft | 353 kts | 203° |
| 2026-05-04 18:13 | 40.75286 | 3.52969 | 29714 ft | 370 kts | 202° |
| 2026-05-04 18:14 | 40.72822 | 3.51906 | 28618 ft | 377 kts | 202° |
| 2026-05-04 18:14 | 40.70305 | 3.50824 | 27835 ft | 378 kts | 202° |
| 2026-05-04 18:14 | 40.67819 | 3.49761 | 27288 ft | 373 kts | 202° |
| 2026-05-04 18:15 | 40.62925 | 3.47674 | 26100 ft | 367 kts | 202° |
| 2026-05-04 18:15 | 40.58102 | 3.45627 | 24917 ft | 362 kts | 202° |
| 2026-05-04 18:15 | 40.55719 | 3.44609 | 24357 ft | 359 kts | 202° |
| 2026-05-04 18:16 | 40.53347 | 3.43591 | 23782 ft | 357 kts | 202° |
| 2026-05-04 18:16 | 40.50995 | 3.42581 | 23195 ft | 355 kts | 202° |
| 2026-05-04 18:16 | 40.48651 | 3.41579 | 22569 ft | 353 kts | 202° |
| 2026-05-04 18:17 | 40.44002 | 3.39598 | 21410 ft | 349 kts | 202° |
| 2026-05-04 18:17 | 40.41697 | 3.38614 | 20859 ft | 348 kts | 202° |
| 2026-05-04 18:17 | 40.37111 | 3.36665 | 19740 ft | 346 kts | 202° |
| 2026-05-04 18:18 | 40.34805 | 3.35677 | 18946 ft | 353 kts | 202° |
| 2026-05-04 18:18 | 40.32452 | 3.34672 | 18195 ft | 358 kts | 201° |
| 2026-05-04 18:18 | 40.30064 | 3.33656 | 17347 ft | 363 kts | 201° |
| 2026-05-04 18:18 | 40.27674 | 3.32638 | 16499 ft | 367 kts | 201° |
| 2026-05-04 18:19 | 40.22795 | 3.30581 | 15488 ft | 358 kts | 200° |
| 2026-05-04 18:19 | 40.20464 | 3.29603 | 15258 ft | 346 kts | 201° |
| 2026-05-04 18:19 | 40.18214 | 3.28657 | 15134 ft | 333 kts | 201° |
| 2026-05-04 18:20 | 40.16036 | 3.27738 | 14802 ft | 326 kts | 201° |
| 2026-05-04 18:20 | 40.13901 | 3.26837 | 14615 ft | 316 kts | 201° |
| 2026-05-04 18:20 | 40.11869 | 3.25980 | 14499 ft | 306 kts | 201° |
| 2026-05-04 18:20 | 40.09851 | 3.25127 | 14319 ft | 297 kts | 201° |
| 2026-05-04 18:21 | 40.08194 | 3.24426 | 14070 ft | 295 kts | 201° |
| 2026-05-04 18:21 | 40.06247 | 3.23600 | 13745 ft | 293 kts | 201° |
| 2026-05-04 18:21 | 40.04318 | 3.22783 | 13381 ft | 291 kts | 201° |
| 2026-05-04 18:21 | 40.02391 | 3.21967 | 13011 ft | 290 kts | 201° |
| 2026-05-04 18:22 | 40.00482 | 3.21161 | 12655 ft | 288 kts | 201° |
| 2026-05-04 18:22 | 39.98584 | 3.20353 | 12289 ft | 285 kts | 204° |
| 2026-05-04 18:22 | 39.96836 | 3.19187 | 11921 ft | 281 kts | 212° |
| 2026-05-04 18:22 | 39.95138 | 3.17935 | 11558 ft | 280 kts | 212° |
| 2026-05-04 18:23 | 39.93449 | 3.16693 | 11224 ft | 278 kts | 212° |
| 2026-05-04 18:23 | 39.91742 | 3.15437 | 10470 ft | 289 kts | 212° |
| 2026-05-04 18:23 | 39.90564 | 3.14569 | 9943 ft | 297 kts | 212° |
| 2026-05-04 18:23 | 39.88134 | 3.12778 | 8820 ft | 310 kts | 212° |
| 2026-05-04 18:24 | 39.86853 | 3.11833 | 8250 ft | 315 kts | 212° |
| 2026-05-04 18:24 | 39.84934 | 3.10417 | 7428 ft | 320 kts | 211° |
| 2026-05-04 18:24 | 39.82982 | 3.08982 | 6625 ft | 324 kts | 211° |
| 2026-05-04 18:24 | 39.81628 | 3.07983 | 6064 ft | 326 kts | 211° |
| 2026-05-04 18:25 | 39.79648 | 3.06526 | 5277 ft | 327 kts | 211° |
| 2026-05-04 18:25 | 39.77715 | 3.05123 | 5063 ft | 309 kts | 211° |
| 2026-05-04 18:25 | 39.75883 | 3.03810 | 4954 ft | 292 kts | 211° |
| 2026-05-04 18:25 | 39.74123 | 3.02551 | 4420 ft | 289 kts | 211° |
| 2026-05-04 18:26 | 39.72414 | 3.01327 | 4174 ft | 267 kts | 211° |
| 2026-05-04 18:26 | 39.70872 | 3.00222 | 4050 ft | 240 kts | 211° |
| 2026-05-04 18:26 | 39.69489 | 2.99228 | 3952 ft | 215 kts | 211° |
| 2026-05-04 18:26 | 39.68251 | 2.98335 | 3858 ft | 194 kts | 212° |
| 2026-05-04 18:27 | 39.67119 | 2.97515 | 3788 ft | 178 kts | 213° |
| 2026-05-04 18:27 | 39.66058 | 2.96745 | 3698 ft | 173 kts | 212° |
| 2026-05-04 18:27 | 39.65031 | 2.95946 | 3583 ft | 172 kts | 221° |
| 2026-05-04 18:27 | 39.64288 | 2.94758 | 3330 ft | 169 kts | 239° |
| 2026-05-04 18:28 | 39.63682 | 2.93464 | 3095 ft | 167 kts | 239° |
| 2026-05-04 18:28 | 39.63082 | 2.92183 | 2868 ft | 165 kts | 238° |
| 2026-05-04 18:28 | 39.62485 | 2.90910 | 2650 ft | 165 kts | 238° |
| 2026-05-04 18:28 | 39.61886 | 2.89636 | 2428 ft | 164 kts | 237° |
| 2026-05-04 18:29 | 39.61316 | 2.88422 | 2219 ft | 151 kts | 237° |
| 2026-05-04 18:29 | 39.60796 | 2.87318 | 2037 ft | 135 kts | 238° |
| 2026-05-04 18:29 | 39.60318 | 2.86302 | 1862 ft | 130 kts | 237° |
| 2026-05-04 18:29 | 39.59852 | 2.85315 | 1691 ft | 127 kts | 236° |
| 2026-05-04 18:30 | 39.58877 | 2.83385 | 1299 ft | 128 kts | 238° |
| 2026-05-04 18:30 | 39.58436 | 2.82386 | 1139 ft | 128 kts | 239° |
| 2026-05-04 18:30 | 39.58000 | 2.81386 | 1005 ft | 128 kts | 237° |
| 2026-05-04 18:31 | 39.57536 | 2.80393 | 812 ft | 129 kts | 237° |
| 2026-05-04 18:31 | 39.57063 | 2.79407 | 654 ft | 129 kts | 237° |
| 2026-05-04 18:31 | 39.56599 | 2.78412 | 421 ft | 129 kts | 238° |
| 2026-05-04 18:31 | 39.56134 | 2.77423 | 295 ft | 130 kts | 238° |
| 2026-05-04 18:32 | 39.55673 | 2.76447 | 150 ft | 126 kts | 237° |
| 2026-05-04 18:32 | 39.55228 | 2.75507 | 39 ft | 115 kts | 237° |
| 2026-05-04 18:32 | 39.54910 | 2.74834 | 38 ft | 58 kts | 241° |
| 2026-05-04 18:32 | 39.54826 | 2.74578 | 38 ft | 21 kts | 256° |
| 2026-05-04 18:33 | 39.54806 | 2.74454 | 38 ft | 14 kts | 265° |
| 2026-05-04 18:33 | 39.54806 | 2.74358 | 38 ft | 6 kts | 262° |
| 2026-05-04 18:33 | 39.54801 | 2.74286 | 38 ft | 9 kts | 272° |
| 2026-05-04 18:33 | 39.54806 | 2.74192 | 38 ft | 12 kts | 281° |
| 2026-05-04 18:34 | 39.54860 | 2.74099 | 38 ft | 13 kts | 324° |
| 2026-05-04 18:34 | 39.54931 | 2.74042 | 37 ft | 10 kts | 327° |
| 2026-05-04 18:34 | 39.54931 | 2.73967 | 38 ft | 10 kts | 250° |
| 2026-05-04 18:34 | 39.54981 | 2.73894 | 38 ft | 12 kts | 321° |
| 2026-05-04 18:35 | 39.54969 | 2.73819 | 38 ft | 10 kts | 242° |
| 2026-05-04 18:35 | 39.54953 | 2.73783 | 38 ft | 1 kts | 238° |
| 2026-05-04 18:35 | 39.54947 | 2.73772 | 38 ft | 0 kts | 238° |